CYBB/YBB METAR and TAF weather

Enter ICAO airport designator
Station Type Date Time Source
CYBB METAR 2022/08/12 23:00 UTC NOAA

CYBB 122300Z 26016KT 15SM -RA BKN023 07/03 A2934 RMK SC7 LAST STFD OBS/NXT 131500Z SLP938


Station Type Date Time Source
CYBB Decoded METAR 2022/08/12 23:00 UTC NOAA

Pelly Bay Airport, Canada (CYBB) 68-32N 089-49W
Aug 12, 2022 - 07:00 PM EDT / 2022.08.12 2300 UTC
Wind: from the W (260 degrees) at 18 MPH (16 KT):0
Visibility: 15 mile(s):0
Sky conditions: mostly cloudy
Weather: light rain
Temperature: 44 F (7 C)
Dew Point: 37 F (3 C)
Relative Humidity: 75%
Pressure (altimeter): 29.34 in. Hg (993 hPa)
ob: CYBB 122300Z 26016KT 15SM -RA BKN023 07/03 A2934 RMK SC7 LAST STFD OBS/NXT 131500Z SLP938
cycle: 23

Station Type Date Time Source
CYBB TAF 2022/08/12 21:12 UTC NOAA

TAF
AMD TAF
AMD CYBB 122308Z 1221/1224 CNL
RMK NO OBS. NXT FCST BY 131600Z

Example: see airport list